sensor_id;sensor_type;location;lat;lon;timestamp;pressure;altitude;pressure_sealevel;temperature;humidity
23118;BME280;11728;50.624;6.014;2022-09-01T00:03:08;98640.84;;;17.03;70.60
23118;BME280;11728;50.624;6.014;2022-09-01T00:08:11;98632.94;;;17.00;70.03
23118;BME280;11728;50.624;6.014;2022-09-01T00:13:12;98639.22;;;16.99;69.70
23118;BME280;11728;50.624;6.014;2022-09-01T00:18:13;98634.69;;;17.01;69.34
23118;BME280;11728;50.624;6.014;2022-09-01T00:23:14;98640.03;;;17.01;69.02
23118;BME280;11728;50.624;6.014;2022-09-01T00:28:15;98635.63;;;17.00;68.91
23118;BME280;11728;50.624;6.014;2022-09-01T00:33:15;98644.50;;;17.01;68.76
23118;BME280;11728;50.624;6.014;2022-09-01T00:38:16;98635.81;;;16.96;68.65
23118;BME280;11728;50.624;6.014;2022-09-01T00:49:07;98634.94;;;16.95;68.55
23118;BME280;11728;50.624;6.014;2022-09-01T00:54:13;98639.34;;;16.96;68.57
23118;BME280;11728;50.624;6.014;2022-09-01T00:59:16;98638.44;;;16.97;68.30
23118;BME280;11728;50.624;6.014;2022-09-01T01:04:18;98638.44;;;16.97;68.11
23118;BME280;11728;50.624;6.014;2022-09-01T01:09:20;98630.44;;;16.97;68.08
23118;BME280;11728;50.624;6.014;2022-09-01T01:14:21;98620.41;;;17.02;68.05
23118;BME280;11728;50.624;6.014;2022-09-01T01:19:46;98624.56;;;17.09;67.90
23118;BME280;11728;50.624;6.014;2022-09-01T01:25:06;98620.16;;;17.08;67.59
23118;BME280;11728;50.624;6.014;2022-09-01T01:30:09;98627.38;;;17.06;67.48
23118;BME280;11728;50.624;6.014;2022-09-01T01:35:11;98615.81;;;17.06;67.35
23118;BME280;11728;50.624;6.014;2022-09-01T01:40:17;98620.28;;;17.05;67.30
23118;BME280;11728;50.624;6.014;2022-09-01T01:45:22;98611.34;;;17.06;67.31
23118;BME280;11728;50.624;6.014;2022-09-01T01:50:26;98620.41;;;17.02;67.23
23118;BME280;11728;50.624;6.014;2022-09-01T01:55:26;98624.94;;;17.00;67.36
23118;BME280;11728;50.624;6.014;2022-09-01T02:00:31;98633.09;;;16.97;67.08
23118;BME280;11728;50.624;6.014;2022-09-01T02:05:34;98633.47;;;16.89;67.51
23118;BME280;11728;50.624;6.014;2022-09-01T02:10:41;98624.94;;;16.81;67.72
23118;BME280;11728;50.624;6.014;2022-09-01T02:15:53;98625.31;;;16.72;68.31
23118;BME280;11728;50.624;6.014;2022-09-01T02:20:54;98619.22;;;16.68;68.19
23118;BME280;11728;50.624;6.014;2022-09-01T02:25:57;98621.78;;;16.71;67.92
23118;BME280;11728;50.624;6.014;2022-09-01T02:31:03;98621.84;;;16.70;67.82
23118;BME280;11728;50.624;6.014;2022-09-01T02:36:11;98615.56;;;16.71;67.58
23118;BME280;11728;50.624;6.014;2022-09-01T02:41:15;98624.81;;;16.62;67.86
23118;BME280;11728;50.624;6.014;2022-09-01T02:46:19;98620.59;;;16.57;67.87
23118;BME280;11728;50.624;6.014;2022-09-01T02:51:23;98620.75;;;16.54;68.03
23118;BME280;11728;50.624;6.014;2022-09-01T02:56:27;98629.78;;;16.50;68.15
23118;BME280;11728;50.624;6.014;2022-09-01T03:01:31;98617.44;;;16.47;68.45
23118;BME280;11728;50.624;6.014;2022-09-01T03:06:35;98614.03;;;16.44;68.43
23118;BME280;11728;50.624;6.014;2022-09-01T03:11:38;98605.97;;;16.45;68.39
23118;BME280;11728;50.624;6.014;2022-09-01T03:17:11;98600.44;;;16.50;68.37
23118;BME280;11728;50.624;6.014;2022-09-01T03:23:49;98602.31;;;16.48;67.96
23118;BME280;11728;50.624;6.014;2022-09-01T03:30:29;98594.72;;;16.39;68.03
23118;BME280;11728;50.624;6.014;2022-09-01T03:36:28;98591.34;;;16.34;68.08
23118;BME280;11728;50.624;6.014;2022-09-01T03:41:30;98593.16;;;16.33;68.11
23118;BME280;11728;50.624;6.014;2022-09-01T03:46:31;98603.16;;;16.27;68.23
23118;BME280;11728;50.624;6.014;2022-09-01T03:51:32;98602.72;;;16.16;68.53
23118;BME280;11728;50.624;6.014;2022-09-01T03:56:34;98603.41;;;16.00;69.34
23118;BME280;11728;50.624;6.014;2022-09-01T04:01:35;98607.63;;;15.82;69.91
23118;BME280;11728;50.624;6.014;2022-09-01T04:06:44;98604.75;;;15.65;70.65
23118;BME280;11728;50.624;6.014;2022-09-01T04:11:45;98596.88;;;15.62;70.98
23118;BME280;11728;50.624;6.014;2022-09-01T04:16:46;98596.13;;;15.59;70.94
23118;BME280;11728;50.624;6.014;2022-09-01T04:22:06;98610.66;;;15.50;71.22
23118;BME280;11728;50.624;6.014;2022-09-01T04:27:14;98610.88;;;15.44;71.55
23118;BME280;11728;50.624;6.014;2022-09-01T04:32:15;98606.69;;;15.38;71.76
23118;BME280;11728;50.624;6.014;2022-09-01T04:37:21;98604.16;;;15.35;71.92
23118;BME280;11728;50.624;6.014;2022-09-01T04:42:30;98598.81;;;15.35;72.02
23118;BME280;11728;50.624;6.014;2022-09-01T04:47:32;98606.81;;;15.35;72.49
23118;BME280;11728;50.624;6.014;2022-09-01T04:52:33;98608.97;;;15.24;72.85
23118;BME280;11728;50.624;6.014;2022-09-01T04:57:37;98608.16;;;15.22;73.29
23118;BME280;11728;50.624;6.014;2022-09-01T05:02:38;98607.81;;;15.31;73.29
23118;BME280;11728;50.624;6.014;2022-09-01T05:07:39;98598.81;;;15.35;73.42
23118;BME280;11728;50.624;6.014;2022-09-01T05:12:40;98611.38;;;15.31;73.50
23118;BME280;11728;50.624;6.014;2022-09-01T05:17:40;98612.50;;;15.23;74.34
23118;BME280;11728;50.624;6.014;2022-09-01T05:22:41;98602.69;;;15.26;74.61
23118;BME280;11728;50.624;6.014;2022-09-01T05:27:43;98609.22;;;15.40;74.27
23118;BME280;11728;50.624;6.014;2022-09-01T05:32:49;98614.81;;;15.57;73.75
23118;BME280;11728;50.624;6.014;2022-09-01T05:37:51;98619.06;;;16.51;71.48
23118;BME280;11728;50.624;6.014;2022-09-01T05:42:52;98613.94;;;17.68;67.71
23118;BME280;11728;50.624;6.014;2022-09-01T05:47:55;98606.13;;;18.55;64.99
23118;BME280;11728;50.624;6.014;2022-09-01T05:52:57;98608.69;;;19.27;62.65
23118;BME280;11728;50.624;6.014;2022-09-01T05:57:57;98616.59;;;19.95;60.75
23118;BME280;11728;50.624;6.014;2022-09-01T06:02:59;98610.16;;;20.60;58.33
23118;BME280;11728;50.624;6.014;2022-09-01T06:08:05;98609.06;;;21.23;56.78
23118;BME280;11728;50.624;6.014;2022-09-01T06:13:08;98609.97;;;21.80;55.26
23118;BME280;11728;50.624;6.014;2022-09-01T06:18:10;98610.72;;;22.38;53.64
23118;BME280;11728;50.624;6.014;2022-09-01T06:23:19;98617.31;;;22.87;52.50
23118;BME280;11728;50.624;6.014;2022-09-01T06:28:20;98612.00;;;23.38;50.79
23118;BME280;11728;50.624;6.014;2022-09-01T06:33:23;98611.97;;;23.77;49.69
23118;BME280;11728;50.624;6.014;2022-09-01T06:38:25;98610.53;;;24.21;48.50
23118;BME280;11728;50.624;6.014;2022-09-01T06:43:27;98614.00;;;24.71;47.41
23118;BME280;11728;50.624;6.014;2022-09-01T06:48:30;98609.38;;;25.20;46.07
23118;BME280;11728;50.624;6.014;2022-09-01T06:53:44;98605.16;;;25.39;45.27
23118;BME280;11728;50.624;6.014;2022-09-01T06:58:52;98618.31;;;25.78;44.20
23118;BME280;11728;50.624;6.014;2022-09-01T07:03:54;98612.22;;;26.20;43.65
23118;BME280;11728;50.624;6.014;2022-09-01T07:09:02;98622.56;;;26.58;42.10
23118;BME280;11728;50.624;6.014;2022-09-01T07:14:05;98623.72;;;26.98;41.84
23118;BME280;11728;50.624;6.014;2022-09-01T07:19:07;98617.84;;;27.56;40.58
23118;BME280;11728;50.624;6.014;2022-09-01T07:24:30;98628.69;;;27.87;39.67
23118;BME280;11728;50.624;6.014;2022-09-01T07:30:05;98624.59;;;28.43;38.92
23118;BME280;11728;50.624;6.014;2022-09-01T07:35:08;98624.06;;;28.88;37.07
23118;BME280;11728;50.624;6.014;2022-09-01T07:40:11;98614.53;;;28.73;36.36
23118;BME280;11728;50.624;6.014;2022-09-01T07:45:53;98623.03;;;29.57;35.78
23118;BME280;11728;50.624;6.014;2022-09-01T07:50:55;98628.47;;;30.04;34.56
23118;BME280;11728;50.624;6.014;2022-09-01T07:56:00;98623.88;;;29.48;34.57
23118;BME280;11728;50.624;6.014;2022-09-01T08:01:09;98631.97;;;29.10;34.94
23118;BME280;11728;50.624;6.014;2022-09-01T08:06:14;98629.63;;;29.63;34.53
23118;BME280;11728;50.624;6.014;2022-09-01T08:11:22;98628.75;;;30.10;33.75
23118;BME280;11728;50.624;6.014;2022-09-01T08:16:29;98629.19;;;30.42;33.10
23118;BME280;11728;50.624;6.014;2022-09-01T08:21:32;98624.69;;;30.96;31.83
23118;BME280;11728;50.624;6.014;2022-09-01T08:26:41;98636.53;;;31.31;31.18
23118;BME280;11728;50.624;6.014;2022-09-01T08:31:42;98630.94;;;31.85;30.39
23118;BME280;11728;50.624;6.014;2022-09-01T08:36:43;98630.78;;;31.69;30.28
23118;BME280;11728;50.624;6.014;2022-09-01T08:42:03;98642.34;;;31.63;28.93
23118;BME280;11728;50.624;6.014;2022-09-01T08:47:10;98638.72;;;32.15;28.98
23118;BME280;11728;50.624;6.014;2022-09-01T08:52:32;98635.44;;;32.95;27.38
23118;BME280;11728;50.624;6.014;2022-09-01T08:57:39;98641.75;;;33.29;26.87
23118;BME280;11728;50.624;6.014;2022-09-01T09:03:01;98629.19;;;33.84;25.49
23118;BME280;11728;50.624;6.014;2022-09-01T09:29:25;98617.38;;;34.85;24.15
23118;BME280;11728;50.624;6.014;2022-09-01T09:39:26;98599.63;;;35.42;22.98
23118;BME280;11728;50.624;6.014;2022-09-01T09:44:30;98598.59;;;35.65;21.97
23118;BME280;11728;50.624;6.014;2022-09-01T09:49:32;98592.53;;;34.25;23.19
23118;BME280;11728;50.624;6.014;2022-09-01T09:54:34;98594.59;;;34.77;23.55
23118;BME280;11728;50.624;6.014;2022-09-01T09:59:40;98588.28;;;35.67;21.71
23118;BME280;11728;50.624;6.014;2022-09-01T10:04:41;98587.31;;;34.61;22.56
23118;BME280;11728;50.624;6.014;2022-09-01T10:09:42;98586.53;;;33.89;23.42
23118;BME280;11728;50.624;6.014;2022-09-01T10:14:49;98588.47;;;34.67;22.53
23118;BME280;11728;50.624;6.014;2022-09-01T10:20:06;98575.66;;;35.73;22.00
23118;BME280;11728;50.624;6.014;2022-09-01T10:25:14;98573.69;;;36.98;20.30
23118;BME280;11728;50.624;6.014;2022-09-01T10:30:18;98568.47;;;37.03;20.42
23118;BME280;11728;50.624;6.014;2022-09-01T10:35:25;98560.63;;;37.21;19.98
23118;BME280;11728;50.624;6.014;2022-09-01T10:50:31;98560.97;;;37.47;20.58
23118;BME280;11728;50.624;6.014;2022-09-01T10:55:47;98561.25;;;38.75;19.58
23118;BME280;11728;50.624;6.014;2022-09-01T11:00:59;98558.22;;;38.64;19.62
23118;BME280;11728;50.624;6.014;2022-09-01T11:11:14;98549.53;;;39.14;19.38
23118;BME280;11728;50.624;6.014;2022-09-01T11:21:32;98541.53;;;38.57;19.66
23118;BME280;11728;50.624;6.014;2022-09-01T11:31:39;98534.44;;;39.16;19.45
23118;BME280;11728;50.624;6.014;2022-09-01T11:41:54;98542.25;;;39.59;18.65
23118;BME280;11728;50.624;6.014;2022-09-01T11:47:03;98537.78;;;39.58;18.81
23118;BME280;11728;50.624;6.014;2022-09-01T11:52:05;98523.31;;;39.82;18.61
23118;BME280;11728;50.624;6.014;2022-09-01T11:57:36;98523.22;;;38.77;19.55
23118;BME280;11728;50.624;6.014;2022-09-01T12:02:48;98515.16;;;35.73;22.00
23118;BME280;11728;50.624;6.014;2022-09-01T12:07:49;98517.56;;;37.34;20.91
23118;BME280;11728;50.624;6.014;2022-09-01T12:12:59;98504.13;;;38.55;19.80
23118;BME280;11728;50.624;6.014;2022-09-01T12:18:14;98507.41;;;38.04;19.67
23118;BME280;11728;50.624;6.014;2022-09-01T12:28:34;98501.53;;;36.88;21.04
23118;BME280;11728;50.624;6.014;2022-09-01T12:33:35;98502.50;;;37.58;20.58
23118;BME280;11728;50.624;6.014;2022-09-01T12:38:35;98509.69;;;38.28;20.15
23118;BME280;11728;50.624;6.014;2022-09-01T12:43:38;98493.06;;;37.46;20.75
23118;BME280;11728;50.624;6.014;2022-09-01T12:48:40;98494.72;;;37.88;20.32
23118;BME280;11728;50.624;6.014;2022-09-01T12:53:53;98494.50;;;37.63;20.58
23118;BME280;11728;50.624;6.014;2022-09-01T12:59:24;98492.53;;;37.77;20.16
23118;BME280;11728;50.624;6.014;2022-09-01T13:04:29;98480.91;;;36.55;20.79
23118;BME280;11728;50.624;6.014;2022-09-01T13:09:30;98489.88;;;33.79;23.33
23118;BME280;11728;50.624;6.014;2022-09-01T13:14:31;98484.25;;;33.57;24.08
23118;BME280;11728;50.624;6.014;2022-09-01T13:19:31;98487.59;;;34.61;23.09
23118;BME280;11728;50.624;6.014;2022-09-01T13:24:31;98478.16;;;34.09;23.97
23118;BME280;11728;50.624;6.014;2022-09-01T13:29:32;98468.06;;;34.48;23.22
23118;BME280;11728;50.624;6.014;2022-09-01T13:34:34;98465.06;;;34.96;22.68
23118;BME280;11728;50.624;6.014;2022-09-01T13:40:12;98472.84;;;35.37;22.98
23118;BME280;11728;50.624;6.014;2022-09-01T13:46:53;98453.81;;;35.13;22.50
23118;BME280;11728;50.624;6.014;2022-09-01T13:53:36;98455.94;;;35.26;23.36
23118;BME280;11728;50.624;6.014;2022-09-01T14:00:15;98445.56;;;34.52;23.67
23118;BME280;11728;50.624;6.014;2022-09-01T14:06:58;98441.66;;;34.77;23.83
23118;BME280;11728;50.624;6.014;2022-09-01T14:13:26;98431.47;;;33.23;24.17
23118;BME280;11728;50.624;6.014;2022-09-01T14:19:59;98444.22;;;31.42;25.91
23118;BME280;11728;50.624;6.014;2022-09-01T14:26:20;98430.97;;;32.39;25.19
23118;BME280;11728;50.624;6.014;2022-09-01T14:31:21;98431.16;;;33.10;24.30
23118;BME280;11728;50.624;6.014;2022-09-01T14:36:24;98416.03;;;33.78;24.46
23118;BME280;11728;50.624;6.014;2022-09-01T14:41:25;98418.81;;;33.06;24.97
23118;BME280;11728;50.624;6.014;2022-09-01T14:46:26;98411.31;;;32.35;25.08
23118;BME280;11728;50.624;6.014;2022-09-01T14:51:28;98416.41;;;31.97;25.36
23118;BME280;11728;50.624;6.014;2022-09-01T14:56:29;98412.59;;;31.82;26.29
23118;BME280;11728;50.624;6.014;2022-09-01T15:01:29;98405.06;;;32.09;26.03
23118;BME280;11728;50.624;6.014;2022-09-01T15:06:30;98404.66;;;31.46;26.28
23118;BME280;11728;50.624;6.014;2022-09-01T15:11:31;98414.72;;;30.06;28.14
23118;BME280;11728;50.624;6.014;2022-09-01T15:16:31;98410.25;;;29.78;29.05
23118;BME280;11728;50.624;6.014;2022-09-01T15:21:41;98401.16;;;29.51;28.53
23118;BME280;11728;50.624;6.014;2022-09-01T15:26:41;98399.56;;;29.67;28.70
23118;BME280;11728;50.624;6.014;2022-09-01T15:31:43;98395.31;;;29.82;28.82
23118;BME280;11728;50.624;6.014;2022-09-01T15:36:45;98396.00;;;29.58;29.35
23118;BME280;11728;50.624;6.014;2022-09-01T15:41:45;98398.72;;;28.83;30.30
23118;BME280;11728;50.624;6.014;2022-09-01T15:46:46;98404.00;;;27.89;31.21
23118;BME280;11728;50.624;6.014;2022-09-01T15:51:47;98405.25;;;27.46;31.55
23118;BME280;11728;50.624;6.014;2022-09-01T15:56:47;98401.88;;;27.33;31.81
23118;BME280;11728;50.624;6.014;2022-09-01T16:01:48;98397.53;;;27.51;31.63
23118;BME280;11728;50.624;6.014;2022-09-01T16:06:50;98386.66;;;27.41;32.30
23118;BME280;11728;50.624;6.014;2022-09-01T16:11:52;98401.47;;;27.17;32.30
23118;BME280;11728;50.624;6.014;2022-09-01T16:17:15;98395.38;;;26.84;32.45
23118;BME280;11728;50.624;6.014;2022-09-01T16:22:26;98396.78;;;26.58;33.04
23118;BME280;11728;50.624;6.014;2022-09-01T16:27:32;98394.00;;;26.48;33.54
23118;BME280;11728;50.624;6.014;2022-09-01T16:32:34;98383.41;;;26.45;33.44
23118;BME280;11728;50.624;6.014;2022-09-01T16:43:05;98388.78;;;26.14;34.32
23118;BME280;11728;50.624;6.014;2022-09-01T16:48:17;98384.78;;;25.98;34.67
23118;BME280;11728;50.624;6.014;2022-09-01T16:53:30;98383.53;;;26.02;34.75
23118;BME280;11728;50.624;6.014;2022-09-01T17:09:23;98373.34;;;25.62;35.05
23118;BME280;11728;50.624;6.014;2022-09-01T17:14:44;98373.22;;;25.63;35.48
23118;BME280;11728;50.624;6.014;2022-09-01T17:19:46;98363.16;;;25.43;35.86
23118;BME280;11728;50.624;6.014;2022-09-01T17:24:57;98360.72;;;25.29;36.48
23118;BME280;11728;50.624;6.014;2022-09-01T17:30:04;98367.22;;;25.16;36.84
23118;BME280;11728;50.624;6.014;2022-09-01T17:46:17;98377.38;;;24.80;37.66
23118;BME280;11728;50.624;6.014;2022-09-01T17:51:28;98372.88;;;24.68;38.27
23118;BME280;11728;50.624;6.014;2022-09-01T17:56:42;98372.59;;;24.49;38.38
23118;BME280;11728;50.624;6.014;2022-09-01T18:06:56;98375.69;;;24.32;38.79
23118;BME280;11728;50.624;6.014;2022-09-01T18:12:04;98377.13;;;24.25;38.74
23118;BME280;11728;50.624;6.014;2022-09-01T18:22:25;98381.06;;;24.21;39.48
23118;BME280;11728;50.624;6.014;2022-09-01T18:27:30;98379.50;;;24.06;39.43
23118;BME280;11728;50.624;6.014;2022-09-01T18:37:49;98394.81;;;23.82;39.89
23118;BME280;11728;50.624;6.014;2022-09-01T18:53:50;98401.97;;;23.58;41.54
23118;BME280;11728;50.624;6.014;2022-09-01T19:04:01;98400.19;;;23.46;41.77
23118;BME280;11728;50.624;6.014;2022-09-01T19:14:33;98409.38;;;23.19;42.63
23118;BME280;11728;50.624;6.014;2022-09-01T19:19:47;98404.00;;;23.07;42.67
23118;BME280;11728;50.624;6.014;2022-09-01T19:24:55;98406.25;;;23.00;42.91
23118;BME280;11728;50.624;6.014;2022-09-01T19:37:06;98406.31;;;22.86;43.43
23118;BME280;11728;50.624;6.014;2022-09-01T19:42:39;98414.41;;;22.74;43.58
23118;BME280;11728;50.624;6.014;2022-09-01T19:48:32;98411.78;;;22.60;43.86
23118;BME280;11728;50.624;6.014;2022-09-01T19:58:48;98410.06;;;22.47;44.24
23118;BME280;11728;50.624;6.014;2022-09-01T20:03:57;98404.22;;;22.40;44.38
23118;BME280;11728;50.624;6.014;2022-09-01T20:09:08;98413.09;;;22.28;44.42
23118;BME280;11728;50.624;6.014;2022-09-01T20:14:33;98410.34;;;22.16;44.92
23118;BME280;11728;50.624;6.014;2022-09-01T20:19:46;98408.16;;;22.08;44.77
23118;BME280;11728;50.624;6.014;2022-09-01T20:24:48;98404.25;;;22.00;44.82
23118;BME280;11728;50.624;6.014;2022-09-01T20:29:56;98409.41;;;21.90;45.37
23118;BME280;11728;50.624;6.014;2022-09-01T20:35:05;98400.19;;;21.80;45.69
23118;BME280;11728;50.624;6.014;2022-09-01T20:40:18;98403.00;;;21.79;45.70
23118;BME280;11728;50.624;6.014;2022-09-01T20:45:23;98396.94;;;21.75;45.78
23118;BME280;11728;50.624;6.014;2022-09-01T20:50:39;98389.00;;;21.74;45.82
23118;BME280;11728;50.624;6.014;2022-09-01T21:01:32;98387.97;;;21.63;46.17
23118;BME280;11728;50.624;6.014;2022-09-01T21:06:46;98383.72;;;21.59;46.33
23118;BME280;11728;50.624;6.014;2022-09-01T21:22:48;98372.88;;;21.46;46.48
23118;BME280;11728;50.624;6.014;2022-09-01T21:27:54;98361.56;;;21.41;46.41
23118;BME280;11728;50.624;6.014;2022-09-01T21:32:56;98367.81;;;21.42;46.46
23118;BME280;11728;50.624;6.014;2022-09-01T21:37:58;98356.38;;;21.38;46.89
23118;BME280;11728;50.624;6.014;2022-09-01T21:43:07;98357.38;;;21.37;46.44
23118;BME280;11728;50.624;6.014;2022-09-01T21:48:12;98354.88;;;21.34;46.35
23118;BME280;11728;50.624;6.014;2022-09-01T21:53:13;98350.56;;;21.32;46.52
23118;BME280;11728;50.624;6.014;2022-09-01T21:58:14;98344.31;;;21.31;46.82
23118;BME280;11728;50.624;6.014;2022-09-01T22:03:14;98345.59;;;21.26;47.04
23118;BME280;11728;50.624;6.014;2022-09-01T22:08:15;98347.69;;;21.21;46.88
23118;BME280;11728;50.624;6.014;2022-09-01T22:13:17;98347.22;;;21.14;46.96
23118;BME280;11728;50.624;6.014;2022-09-01T22:18:19;98341.09;;;21.12;46.91
23118;BME280;11728;50.624;6.014;2022-09-01T22:23:20;98340.78;;;21.17;46.72
23118;BME280;11728;50.624;6.014;2022-09-01T22:28:20;98337.63;;;21.10;46.85
23118;BME280;11728;50.624;6.014;2022-09-01T22:33:22;98325.38;;;21.06;46.80
23118;BME280;11728;50.624;6.014;2022-09-01T22:38:23;98328.91;;;21.07;46.38
23118;BME280;11728;50.624;6.014;2022-09-01T22:43:24;98324.19;;;21.10;46.07
23118;BME280;11728;50.624;6.014;2022-09-01T22:48:26;98319.69;;;21.11;45.94
23118;BME280;11728;50.624;6.014;2022-09-01T22:53:26;98323.13;;;21.13;45.63
23118;BME280;11728;50.624;6.014;2022-09-01T22:58:27;98318.63;;;21.13;45.53
23118;BME280;11728;50.624;6.014;2022-09-01T23:03:28;98316.06;;;21.12;45.59
23118;BME280;11728;50.624;6.014;2022-09-01T23:08:28;98317.00;;;21.11;45.23
23118;BME280;11728;50.624;6.014;2022-09-01T23:13:29;98314.50;;;21.08;45.30
23118;BME280;11728;50.624;6.014;2022-09-01T23:18:32;98314.50;;;21.08;45.03
23118;BME280;11728;50.624;6.014;2022-09-01T23:23:33;98308.38;;;21.06;44.75
23118;BME280;11728;50.624;6.014;2022-09-01T23:28:35;98307.63;;;21.04;44.73
23118;BME280;11728;50.624;6.014;2022-09-01T23:33:37;98306.84;;;21.02;44.44
23118;BME280;11728;50.624;6.014;2022-09-01T23:38:38;98298.97;;;20.99;44.20
23118;BME280;11728;50.624;6.014;2022-09-01T23:43:40;98298.31;;;20.95;44.07
23118;BME280;11728;50.624;6.014;2022-09-01T23:48:41;98285.16;;;20.91;43.82
23118;BME280;11728;50.624;6.014;2022-09-01T23:53:41;98285.16;;;20.91;43.49
23118;BME280;11728;50.624;6.014;2022-09-01T23:58:42;98269.28;;;20.88;43.48
